Time;durP1;ratioP1;P1;durP2;ratioP2;P2;SDS_P1;SDS_P2;PMS_P1;PMS_P2;Temp;Humidity;BMP_temperature;BMP_pressure;BME280_temperature;BME280_humidity;BME280_pressure;Samples;Min_cycle;Max_cycle;Signal;HPM_P1;HPM_P2
2023/06/26 00:01:02;;;;;;;9.88;8.05;;;;;;;-144.87;100.00;61487.56;4965155;28;20070;-71
2023/06/26 00:03:28;;;;;;;9.27;8.07;;;;;;;-144.87;100.00;61487.56;4954002;28;20570;-71
2023/06/26 00:06:00;;;;;;;12.90;7.95;;;;;;;-144.87;100.00;61487.56;4968412;28;20042;-71
2023/06/26 00:08:27;;;;;;;9.55;7.75;;;;;;;-144.87;100.00;61487.56;4976925;28;20100;-71
2023/06/26 00:10:53;;;;;;;10.32;8.50;;;;;;;-144.87;100.00;61487.56;4978113;28;20047;-69
2023/06/26 00:13:20;;;;;;;12.15;8.65;;;;;;;-144.87;100.00;61487.56;4939775;28;20400;-71
2023/06/26 00:15:46;;;;;;;12.73;8.52;;;;;;;-144.87;100.00;61487.56;4967375;28;20563;-69
2023/06/26 00:18:12;;;;;;;10.52;8.60;;;;;;;-144.87;100.00;61487.56;4976293;28;20038;-70
2023/06/26 00:20:38;;;;;;;14.10;8.63;;;;;;;-144.87;100.00;61487.56;4963085;28;20058;-70
2023/06/26 00:23:07;;;;;;;10.98;8.55;;;;;;;-144.87;100.00;61487.56;4998247;28;20303;-71
2023/06/26 00:25:34;;;;;;;10.98;8.88;;;;;;;-144.87;100.00;61487.56;4998585;28;20065;-71
2023/06/26 00:28:01;;;;;;;11.15;8.75;;;;;;;-144.87;100.00;61487.56;5003233;28;20033;-71
2023/06/26 00:30:27;;;;;;;16.75;9.27;;;;;;;-144.87;100.00;61487.56;4994867;28;20031;-71
2023/06/26 00:32:53;;;;;;;13.75;9.55;;;;;;;-144.87;100.00;61487.56;4990217;28;20038;-70
2023/06/26 00:35:20;;;;;;;10.85;9.13;;;;;;;-144.87;100.00;61487.56;4984129;28;20034;-71
2023/06/26 00:37:47;;;;;;;13.00;9.57;;;;;;;-144.87;100.00;61487.56;4995674;28;20506;-72
2023/06/26 00:40:13;;;;;;;12.80;9.45;;;;;;;-144.87;100.00;61487.56;4999782;28;20038;-70
2023/06/26 00:42:40;;;;;;;11.13;9.60;;;;;;;-144.87;100.00;61487.56;4997045;28;20144;-71
2023/06/26 00:45:06;;;;;;;13.32;9.23;;;;;;;-144.87;100.00;61487.56;4985425;28;20045;-71
2023/06/26 00:47:33;;;;;;;13.65;9.18;;;;;;;-144.87;100.00;61487.56;4967637;28;20045;-71
2023/06/26 00:49:59;;;;;;;19.23;9.77;;;;;;;-144.87;100.00;61487.56;4989437;28;20128;-71
2023/06/26 00:52:25;;;;;;;12.80;7.97;;;;;;;-144.87;100.00;61487.56;4999234;28;20038;-70
2023/06/26 00:54:52;;;;;;;11.13;8.60;;;;;;;-144.87;100.00;61487.56;4983664;28;20496;-70
2023/06/26 01:00:55;;;;;;;10.35;7.95;;;;;;;-144.87;100.00;61487.56;4987789;23;21092;-69
2023/06/26 01:03:24;;;;;;;15.27;7.78;;;;;;;-144.87;100.00;61487.56;4958848;28;20404;-69
2023/06/26 01:05:52;;;;;;;17.35;7.43;;;;;;;-144.87;100.00;61487.56;4966390;28;20109;-72
2023/06/26 01:08:18;;;;;;;11.35;7.57;;;;;;;-144.87;100.00;61487.56;4936914;28;20492;-71
2023/06/26 01:10:45;;;;;;;11.25;8.00;;;;;;;-144.87;100.00;61487.56;4948844;28;20035;-71
2023/06/26 01:13:15;;;;;;;12.32;8.02;;;;;;;-144.87;100.00;61487.56;4960828;28;20504;-70
2023/06/26 01:15:42;;;;;;;12.25;7.45;;;;;;;-144.87;100.00;61487.56;4963399;28;20116;-71
2023/06/26 01:18:08;;;;;;;10.18;7.65;;;;;;;-144.87;100.00;61487.56;4945051;28;20030;-71
2023/06/26 01:20:42;;;;;;;14.52;8.20;;;;;;;-144.87;100.00;61487.56;4965560;28;20055;-70
2023/06/26 01:23:30;;;;;;;16.75;7.90;;;;;;;-144.87;100.00;61487.56;4962610;28;20046;-71
2023/06/26 01:26:11;;;;;;;20.10;7.70;;;;;;;-144.87;100.00;61487.56;4962989;28;20039;-71
2023/06/26 01:28:43;;;;;;;13.48;7.63;;;;;;;-144.87;100.00;61487.56;4974804;28;20500;-71
2023/06/26 01:31:10;;;;;;;11.25;7.38;;;;;;;-144.87;100.00;61487.56;4978117;28;20551;-72
2023/06/26 01:33:37;;;;;;;14.90;7.90;;;;;;;-144.87;100.00;61487.56;4986175;28;20519;-69
2023/06/26 01:36:04;;;;;;;17.20;8.20;;;;;;;-144.87;100.00;61487.56;4932304;28;20049;-70
2023/06/26 01:38:31;;;;;;;13.75;9.00;;;;;;;-144.87;100.00;61487.56;4965519;28;20121;-71
2023/06/26 01:40:57;;;;;;;11.75;7.63;;;;;;;-144.87;100.00;61487.56;4968125;28;20045;-70
2023/06/26 01:43:37;;;;;;;12.77;7.43;;;;;;;-144.87;100.00;61487.56;4957179;28;20074;-70
2023/06/26 01:46:09;;;;;;;12.93;7.33;;;;;;;-144.87;100.00;61487.56;4979172;28;20058;-70
2023/06/26 01:49:10;;;;;;;17.48;7.70;;;;;;;-144.87;100.00;61487.56;4964614;28;20023;-71
2023/06/26 01:51:42;;;;;;;15.00;7.40;;;;;;;-144.87;100.00;61487.56;4956226;28;20151;-70
2023/06/26 01:54:13;;;;;;;15.80;6.97;;;;;;;-144.87;100.00;61487.56;4951387;28;20030;-71
2023/06/26 01:56:43;;;;;;;16.20;7.85;;;;;;;-144.87;100.00;61487.56;4971311;28;20026;-71
2023/06/26 01:59:10;;;;;;;14.40;6.70;;;;;;;-144.87;100.00;61487.56;4971444;28;20029;-71
2023/06/26 02:01:36;;;;;;;13.00;7.28;;;;;;;-144.87;100.00;61487.56;4903552;28;1190315;-71
2023/06/26 02:04:02;;;;;;;13.63;7.40;;;;;;;-144.87;100.00;61487.56;4967719;28;20062;-71
2023/06/26 02:06:30;;;;;;;10.93;7.00;;;;;;;-144.87;100.00;61487.56;4986852;28;20035;-70
2023/06/26 02:08:59;;;;;;;13.80;6.95;;;;;;;-144.87;100.00;61487.56;4935459;28;20035;-71
2023/06/26 02:11:27;;;;;;;15.63;7.20;;;;;;;-144.87;100.00;61487.56;4970995;28;20671;-69
2023/06/26 02:13:53;;;;;;;12.70;7.25;;;;;;;-144.87;100.00;61487.56;4965084;28;20126;-71
2023/06/26 02:16:20;;;;;;;13.75;7.63;;;;;;;-144.87;100.00;61487.56;4931563;28;20512;-72
2023/06/26 02:18:46;;;;;;;13.98;7.30;;;;;;;-144.87;100.00;61487.56;4967813;28;20093;-73
2023/06/26 02:21:14;;;;;;;17.35;6.80;;;;;;;-144.87;100.00;61487.56;4966278;28;20109;-71
2023/06/26 02:23:40;;;;;;;16.35;7.43;;;;;;;-144.87;100.00;61487.56;4963654;28;20039;-71
2023/06/26 02:26:06;;;;;;;23.98;7.25;;;;;;;-144.87;100.00;61487.56;4982029;28;20039;-71
2023/06/26 02:28:34;;;;;;;37.13;8.02;;;;;;;-144.87;100.00;61487.56;4953660;28;20472;-70
2023/06/26 02:31:00;;;;;;;20.58;7.82;;;;;;;-144.87;100.00;61487.56;4970972;28;20041;-71
2023/06/26 02:33:27;;;;;;;18.30;8.18;;;;;;;-144.87;100.00;61487.56;4970441;28;20140;-70
2023/06/26 02:35:53;;;;;;;26.85;8.43;;;;;;;-144.87;100.00;61487.56;4970133;28;20126;-71
2023/06/26 02:38:19;;;;;;;17.67;7.10;;;;;;;-144.87;100.00;61487.56;4964152;28;20087;-71
2023/06/26 02:40:46;;;;;;;24.50;8.13;;;;;;;-144.87;100.00;61487.56;4950639;28;20030;-70
2023/06/26 02:43:14;;;;;;;14.07;7.72;;;;;;;-144.87;100.00;61487.56;4965059;28;20046;-70
2023/06/26 02:45:41;;;;;;;16.48;7.43;;;;;;;-144.87;100.00;61487.56;4949133;28;20444;-69
2023/06/26 02:48:07;;;;;;;20.75;7.45;;;;;;;-144.87;100.00;61487.56;4977164;28;20035;-69
2023/06/26 02:50:34;;;;;;;16.20;6.93;;;;;;;-144.87;100.00;61487.56;4962824;28;20044;-71
2023/06/26 02:53:09;;;;;;;18.63;7.15;;;;;;;-144.87;100.00;61487.56;4947834;28;20066;-71
2023/06/26 02:55:38;;;;;;;18.67;7.43;;;;;;;-144.87;100.00;61487.56;4960112;28;20062;-70
2023/06/26 02:58:05;;;;;;;23.58;7.88;;;;;;;-144.87;100.00;61487.56;4957056;28;20023;-71
2023/06/26 03:00:32;;;;;;;20.83;7.93;;;;;;;-144.87;100.00;61487.56;4967049;28;20057;-70
2023/06/26 03:03:01;;;;;;;21.38;7.68;;;;;;;-144.87;100.00;61487.56;4981807;28;20042;-71
2023/06/26 03:05:27;;;;;;;21.10;8.60;;;;;;;-144.87;100.00;61487.56;4966744;28;20146;-72
2023/06/26 03:07:54;;;;;;;20.63;7.63;;;;;;;-144.87;100.00;61487.56;4949445;28;20061;-71
2023/06/26 03:10:20;;;;;;;23.15;8.18;;;;;;;-144.87;100.00;61487.56;4974559;28;20043;-71
2023/06/26 03:12:46;;;;;;;23.48;8.05;;;;;;;-144.87;100.00;61487.56;4948949;28;20476;-71
2023/06/26 03:15:14;;;;;;;31.92;9.63;;;;;;;-144.87;100.00;61487.56;4963704;28;20050;-71
2023/06/26 03:17:40;;;;;;;22.42;8.48;;;;;;;-144.87;100.00;61487.56;4966716;28;20133;-71
2023/06/26 03:20:10;;;;;;;22.83;8.40;;;;;;;-144.87;100.00;61487.56;4963596;28;20129;-70
2023/06/26 03:22:48;;;;;;;23.10;8.10;;;;;;;-144.87;100.00;61487.56;4964092;28;20067;-71
2023/06/26 03:25:17;;;;;;;22.42;8.00;;;;;;;-144.87;100.00;61487.56;4950906;28;20388;-71
2023/06/26 03:27:43;;;;;;;26.45;8.52;;;;;;;-144.87;100.00;61487.56;4967995;28;20038;-72
2023/06/26 03:30:11;;;;;;;25.40;8.77;;;;;;;-144.87;100.00;61487.56;4954047;28;21482;-72
2023/06/26 03:32:39;;;;;;;25.33;9.20;;;;;;;-144.87;100.00;61487.56;4943973;28;20540;-71
2023/06/26 03:35:06;;;;;;;23.88;8.20;;;;;;;-144.87;100.00;61487.56;4970920;28;20035;-70
2023/06/26 03:37:33;;;;;;;23.48;8.73;;;;;;;-144.87;100.00;61487.56;4967341;28;20074;-69
2023/06/26 03:39:59;;;;;;;23.42;8.73;;;;;;;-144.87;100.00;61487.56;4967628;28;21369;-70
2023/06/26 03:42:25;;;;;;;23.08;9.07;;;;;;;-144.87;100.00;61487.56;4958184;28;20030;-70
2023/06/26 03:44:52;;;;;;;31.70;8.98;;;;;;;-144.87;100.00;61487.56;4943258;28;20071;-70
2023/06/26 03:47:19;;;;;;;27.98;8.27;;;;;;;-144.87;100.00;61487.56;4963104;28;20105;-70
2023/06/26 03:49:45;;;;;;;28.08;8.80;;;;;;;-144.87;100.00;61487.56;4966601;28;20121;-70
2023/06/26 03:52:11;;;;;;;26.70;9.05;;;;;;;-144.87;100.00;61487.56;4983004;28;20185;-70
2023/06/26 03:54:39;;;;;;;26.60;8.60;;;;;;;-144.87;100.00;61487.56;4974857;28;20034;-71
2023/06/26 03:57:06;;;;;;;20.83;8.13;;;;;;;-144.87;100.00;61487.56;4976322;28;20072;-70
2023/06/26 03:59:32;;;;;;;31.20;8.90;;;;;;;-144.87;100.00;61487.56;4970939;28;20591;-71
2023/06/26 04:01:58;;;;;;;23.98;8.90;;;;;;;-144.87;100.00;61487.56;4952282;28;20039;-73
2023/06/26 04:04:24;;;;;;;25.33;8.57;;;;;;;-144.87;100.00;61487.56;4973892;28;20133;-75
2023/06/26 04:06:51;;;;;;;20.88;7.82;;;;;;;-144.87;100.00;61487.56;4968624;28;20035;-76
2023/06/26 04:09:17;;;;;;;23.35;8.60;;;;;;;-144.87;100.00;61487.56;4978131;28;20090;-74
2023/06/26 04:11:44;;;;;;;27.48;8.82;;;;;;;-144.87;100.00;61487.56;4972026;28;20475;-70
2023/06/26 04:14:11;;;;;;;25.67;7.82;;;;;;;-144.87;100.00;61487.56;4971802;28;20031;-70
2023/06/26 04:16:38;;;;;;;22.70;7.90;;;;;;;-144.87;100.00;61487.56;4981566;28;20043;-70
2023/06/26 04:19:04;;;;;;;22.75;8.30;;;;;;;-144.87;100.00;61487.56;4970670;28;20027;-71
2023/06/26 04:21:31;;;;;;;24.15;8.63;;;;;;;-144.87;100.00;61487.56;4974014;28;20057;-71
2023/06/26 04:23:57;;;;;;;25.00;10.48;;;;;;;-144.87;100.00;61487.56;4969151;28;20065;-72
2023/06/26 04:26:24;;;;;;;26.90;8.25;;;;;;;-144.87;100.00;61487.56;4955990;28;20038;-71
2023/06/26 04:28:50;;;;;;;22.70;7.68;;;;;;;-144.87;100.00;61487.56;4970016;28;20078;-71
2023/06/26 04:31:16;;;;;;;20.60;7.45;;;;;;;-144.87;100.00;61487.56;4957018;28;20031;-71
2023/06/26 04:33:42;;;;;;;15.70;6.70;;;;;;;-144.87;100.00;61487.56;4965679;28;20047;-70
2023/06/26 04:36:09;;;;;;;14.70;6.60;;;;;;;-144.87;100.00;61487.56;4974286;28;20053;-70
2023/06/26 04:38:35;;;;;;;20.77;6.80;;;;;;;-144.87;100.00;61487.56;4972670;28;20026;-69
2023/06/26 04:41:02;;;;;;;20.30;6.38;;;;;;;-144.87;100.00;61487.56;4975779;28;20046;-70
2023/06/26 04:43:28;;;;;;;16.65;5.93;;;;;;;-144.87;100.00;61487.56;4953447;28;20049;-70
2023/06/26 04:45:56;;;;;;;16.92;6.97;;;;;;;-144.87;100.00;61487.56;4971021;28;20057;-70
2023/06/26 04:48:22;;;;;;;20.00;6.72;;;;;;;-144.87;100.00;61487.56;4967673;28;20050;-71
2023/06/26 04:50:53;;;;;;;14.13;6.13;;;;;;;-144.87;100.00;61487.56;4964335;28;20050;-69
2023/06/26 04:53:21;;;;;;;12.70;6.15;;;;;;;-144.87;100.00;61487.56;4952178;28;20043;-71
2023/06/26 04:55:47;;;;;;;13.43;6.00;;;;;;;-144.87;100.00;61487.56;4965480;28;20027;-69
2023/06/26 04:58:14;;;;;;;12.48;5.35;;;;;;;-144.87;100.00;61487.56;4961301;28;20039;-69
2023/06/26 05:00:43;;;;;;;17.88;5.88;;;;;;;-144.87;100.00;61487.56;4967882;28;20030;-70
2023/06/26 05:03:11;;;;;;;13.45;5.75;;;;;;;-144.87;100.00;61487.56;4968030;28;20204;-70
2023/06/26 05:05:37;;;;;;;13.77;5.38;;;;;;;-144.87;100.00;61487.56;4984144;28;20085;-70
2023/06/26 05:08:22;;;;;;;15.23;5.15;;;;;;;-144.87;100.00;61487.56;4947075;28;20076;-70
2023/06/26 05:10:48;;;;;;;9.65;4.88;;;;;;;-144.87;100.00;61487.56;4961431;28;20046;-72
2023/06/26 05:13:17;;;;;;;14.73;5.30;;;;;;;-144.87;100.00;61487.56;4961796;28;20034;-68
2023/06/26 05:15:44;;;;;;;14.52;4.75;;;;;;;-144.87;100.00;61487.56;4959143;28;20553;-70
2023/06/26 05:18:10;;;;;;;12.07;4.90;;;;;;;-144.87;100.00;61487.56;4965172;28;20041;-70
2023/06/26 05:20:37;;;;;;;16.60;4.53;;;;;;;-144.87;100.00;61487.56;4968084;28;20114;-69
2023/06/26 05:23:04;;;;;;;9.35;4.32;;;;;;;-144.87;100.00;61487.56;4963741;28;20054;-69
2023/06/26 05:25:31;;;;;;;10.15;4.20;;;;;;;-144.87;100.00;61487.56;4964078;28;20038;-69
2023/06/26 05:27:58;;;;;;;10.75;4.50;;;;;;;-144.87;100.00;61487.56;4968406;28;20027;-69
2023/06/26 05:30:25;;;;;;;14.77;4.32;;;;;;;-144.87;100.00;61487.56;4970614;28;20041;-70
2023/06/26 05:32:53;;;;;;;10.77;3.88;;;;;;;-144.87;100.00;61487.56;4967090;28;20051;-70
2023/06/26 05:35:21;;;;;;;12.40;4.00;;;;;;;-144.87;100.00;61487.56;4963737;28;20066;-69
2023/06/26 05:37:50;;;;;;;11.23;3.88;;;;;;;-144.87;100.00;61487.56;4960250;28;20109;-71
2023/06/26 05:40:17;;;;;;;8.10;4.00;;;;;;;-144.87;100.00;61487.56;4966645;28;20121;-70
2023/06/26 05:42:44;;;;;;;9.48;4.55;;;;;;;-144.87;100.00;61487.56;4963798;28;20046;-70
2023/06/26 05:45:11;;;;;;;12.00;4.15;;;;;;;-144.87;100.00;61487.56;4963896;28;20169;-70
2023/06/26 05:47:38;;;;;;;10.23;3.75;;;;;;;-144.87;100.00;61487.56;4965685;28;20022;-72
2023/06/26 05:50:04;;;;;;;8.40;3.75;;;;;;;-144.87;100.00;61487.56;4960957;28;20054;-72
2023/06/26 05:52:31;;;;;;;13.27;4.45;;;;;;;-144.87;100.00;61487.56;4951136;28;20460;-73
2023/06/26 05:55:00;;;;;;;9.95;3.78;;;;;;;-144.87;100.00;61487.56;4964422;28;20075;-70
2023/06/26 05:57:30;;;;;;;6.70;3.50;;;;;;;-144.87;100.00;61487.56;4982066;28;20431;-70
2023/06/26 05:59:57;;;;;;;;;;;;;;;-144.87;100.00;61487.56;4969639;28;20034;-70
2023/06/26 06:02:23;;;;;;;10.63;2.88;;;;;;;-144.87;100.00;61487.56;4963357;28;19930;-70
2023/06/26 06:04:49;;;;;;;10.65;3.80;;;;;;;-144.87;100.00;61487.56;4962680;28;20035;-69
2023/06/26 06:07:16;;;;;;;12.30;4.10;;;;;;;-144.87;100.00;61487.56;4965086;28;20144;-70
2023/06/26 06:09:42;;;;;;;8.45;3.60;;;;;;;-144.87;100.00;61487.56;4963843;28;20066;-69
2023/06/26 06:12:29;;;;;;;6.50;3.13;;;;;;;-144.87;100.00;61487.56;4950621;28;20035;-72
2023/06/26 06:14:58;;;;;;;9.18;3.22;;;;;;;-144.87;100.00;61487.56;4954546;28;20121;-71
2023/06/26 06:17:24;;;;;;;12.38;3.55;;;;;;;-144.87;100.00;61487.56;4965572;28;20046;-69
2023/06/26 06:19:50;;;;;;;9.38;3.28;;;;;;;-144.87;100.00;61487.56;4967291;28;20055;-70
2023/06/26 06:22:17;;;;;;;6.50;3.30;;;;;;;-144.87;100.00;61487.56;4963361;28;20070;-69
2023/06/26 06:25:02;;;;;;;7.95;3.28;;;;;;;-144.87;100.00;61487.56;4978570;28;20043;-70
2023/06/26 06:27:29;;;;;;;12.18;4.30;;;;;;;-144.87;100.00;61487.56;4966928;28;20121;-70
2023/06/26 06:29:55;;;;;;;13.82;4.00;;;;;;;-144.87;100.00;61487.56;4965423;28;20043;-70
2023/06/26 06:32:21;;;;;;;12.00;3.85;;;;;;;-144.87;100.00;61487.56;4967979;28;20115;-69
2023/06/26 06:34:48;;;;;;;11.30;4.72;;;;;;;-144.87;100.00;61487.56;4958918;28;20039;-70
2023/06/26 06:37:14;;;;;;;12.25;4.15;;;;;;;-144.87;100.00;61487.56;4960980;28;20465;-69
2023/06/26 06:39:40;;;;;;;14.32;5.07;;;;;;;-144.87;100.00;61487.56;4967410;28;20043;-69
2023/06/26 06:42:06;;;;;;;8.95;3.95;;;;;;;-144.87;100.00;61487.56;4966397;28;20039;-69
2023/06/26 06:44:33;;;;;;;10.77;4.00;;;;;;;-144.87;100.00;61487.56;4964717;28;20065;-69
2023/06/26 06:46:59;;;;;;;10.65;3.83;;;;;;;-144.87;100.00;61487.56;4959875;28;20070;-69
2023/06/26 06:49:25;;;;;;;10.63;3.72;;;;;;;-144.87;100.00;61487.56;4951523;28;20046;-69
2023/06/26 06:51:52;;;;;;;15.07;3.90;;;;;;;-144.87;100.00;61487.56;4950649;28;20067;-69
2023/06/26 06:54:18;;;;;;;7.38;3.45;;;;;;;-144.87;100.00;61487.56;4946509;29;20039;-69
2023/06/26 06:56:44;;;;;;;8.63;3.53;;;;;;;-144.87;100.00;61487.56;4949960;28;20071;-70
2023/06/26 06:59:11;;;;;;;13.52;3.50;;;;;;;-144.87;100.00;61487.56;4947885;28;20058;-69
2023/06/26 07:01:38;;;;;;;10.07;3.50;;;;;;;-144.87;100.00;61487.56;4947826;29;20047;-70
2023/06/26 07:04:05;;;;;;;13.35;3.50;;;;;;;-144.87;100.00;61487.56;4948562;29;20042;-70
2023/06/26 07:06:31;;;;;;;10.05;3.58;;;;;;;-144.87;100.00;61487.56;4951172;29;20078;-70
2023/06/26 07:08:57;;;;;;;12.70;4.80;;;;;;;-144.87;100.00;61487.56;4950220;29;20126;-70
2023/06/26 07:11:23;;;;;;;9.10;3.53;;;;;;;-144.87;100.00;61487.56;4947219;28;20035;-70
2023/06/26 07:13:50;;;;;;;10.13;3.28;;;;;;;-144.87;100.00;61487.56;4948163;29;20114;-70
2023/06/26 07:16:16;;;;;;;9.45;3.60;;;;;;;-144.87;100.00;61487.56;4950837;29;20094;-70
2023/06/26 07:18:43;;;;;;;16.00;3.22;;;;;;;-144.87;100.00;61487.56;4943981;29;20031;-70
2023/06/26 07:21:09;;;;;;;10.32;3.92;;;;;;;-144.87;100.00;61487.56;4943737;29;20046;-69
2023/06/26 07:23:35;;;;;;;10.10;3.60;;;;;;;-144.87;100.00;61487.56;4948690;28;20039;-69
2023/06/26 07:26:02;;;;;;;10.35;3.38;;;;;;;-144.87;100.00;61487.56;4948168;28;20074;-70
2023/06/26 07:28:28;;;;;;;10.35;2.80;;;;;;;-144.87;100.00;61487.56;4963444;28;20059;-69
2023/06/26 07:30:54;;;;;;;9.48;2.92;;;;;;;-144.87;100.00;61487.56;4949276;28;20181;-68
2023/06/26 07:33:21;;;;;;;5.90;2.90;;;;;;;-144.87;100.00;61487.56;4934620;29;20035;-70
2023/06/26 07:35:47;;;;;;;13.15;3.13;;;;;;;-144.87;100.00;61487.56;4935175;29;20528;-69
2023/06/26 07:38:13;;;;;;;8.68;2.63;;;;;;;-144.87;100.00;61487.56;4942042;28;20488;-70
2023/06/26 07:40:39;;;;;;;6.25;2.42;;;;;;;-144.87;100.00;61487.56;4953762;28;20039;-69
2023/06/26 07:43:06;;;;;;;7.88;3.05;;;;;;;-144.87;100.00;61487.56;4951685;28;20023;-70
2023/06/26 07:45:32;;;;;;;8.85;3.00;;;;;;;-144.87;100.00;61487.56;4950600;29;20341;-70
2023/06/26 07:47:59;;;;;;;9.80;3.10;;;;;;;-144.87;100.00;61487.56;4949090;28;20035;-70
2023/06/26 07:50:25;;;;;;;11.07;3.58;;;;;;;-144.87;100.00;61487.56;4936137;29;20121;-70
2023/06/26 07:52:53;;;;;;;14.20;3.17;;;;;;;-144.87;100.00;61487.56;4952290;28;20099;-70
2023/06/26 07:55:20;;;;;;;11.80;3.05;;;;;;;-144.87;100.00;61487.56;4949724;29;20062;-71
2023/06/26 07:57:47;;;;;;;9.07;3.22;;;;;;;-144.87;100.00;61487.56;4965376;28;20073;-71
2023/06/26 08:00:13;;;;;;;10.43;2.80;;;;;;;-144.87;100.00;61487.56;4951816;28;20078;-70
2023/06/26 08:02:42;;;;;;;13.73;3.55;;;;;;;-144.87;100.00;61487.56;4946879;28;20063;-70
2023/06/26 08:05:09;;;;;;;12.68;3.13;;;;;;;-144.87;100.00;61487.56;4955118;29;20068;-71
2023/06/26 08:07:35;;;;;;;9.55;2.78;;;;;;;-144.87;100.00;61487.56;4954342;29;20046;-70
2023/06/26 08:10:02;;;;;;;9.77;2.70;;;;;;;-144.87;100.00;61487.56;4954061;28;20644;-70
2023/06/26 08:12:28;;;;;;;10.55;3.03;;;;;;;-144.87;100.00;61487.56;4934816;28;20039;-70
2023/06/26 08:14:54;;;;;;;13.30;2.67;;;;;;;-144.87;100.00;61487.56;4954147;28;20035;-69
2023/06/26 08:17:20;;;;;;;9.07;2.58;;;;;;;-144.87;100.00;61487.56;4953692;28;20377;-70
2023/06/26 08:19:46;;;;;;;8.15;2.47;;;;;;;-144.87;100.00;61487.56;4953565;28;20046;-70
2023/06/26 08:22:13;;;;;;;10.70;2.95;;;;;;;-144.87;100.00;61487.56;4950564;29;20039;-70
2023/06/26 08:24:39;;;;;;;9.85;2.63;;;;;;;-144.87;100.00;61487.56;4952912;29;20050;-70
2023/06/26 08:27:07;;;;;;;8.77;2.78;;;;;;;-144.87;100.00;61487.56;4953974;28;20039;-70
2023/06/26 08:29:34;;;;;;;11.70;2.80;;;;;;;-144.87;100.00;61487.56;4948523;28;20050;-69
2023/06/26 08:32:02;;;;;;;10.13;3.13;;;;;;;-144.87;100.00;61487.56;4951409;29;20102;-70
2023/06/26 08:34:28;;;;;;;11.18;2.60;;;;;;;-144.87;100.00;61487.56;4950899;28;20493;-70
2023/06/26 08:36:54;;;;;;;11.77;2.50;;;;;;;-144.87;100.00;61487.56;4952673;29;20405;-69
2023/06/26 08:39:20;;;;;;;10.35;2.88;;;;;;;-144.87;100.00;61487.56;4939700;29;20457;-69
2023/06/26 08:41:47;;;;;;;14.18;3.25;;;;;;;-144.87;100.00;61487.56;4953380;29;20043;-69
2023/06/26 08:44:16;;;;;;;9.70;3.28;;;;;;;-144.87;100.00;61487.56;4950023;28;20071;-70
2023/06/26 08:46:43;;;;;;;10.30;3.03;;;;;;;-144.87;100.00;61487.56;4952930;28;20531;-69
2023/06/26 08:49:18;;;;;;;6.57;2.15;;;;;;;-144.87;100.00;61487.56;4946480;29;20043;-69
2023/06/26 08:51:51;;;;;;;15.00;2.95;;;;;;;-144.87;100.00;61487.56;4949097;29;20353;-70
2023/06/26 08:54:18;;;;;;;12.45;2.92;;;;;;;-144.87;100.00;61487.56;4949669;29;20054;-69
2023/06/26 08:56:46;;;;;;;8.25;2.50;;;;;;;-144.87;100.00;61487.56;4947486;28;20049;-70
2023/06/26 08:59:14;;;;;;;9.20;2.45;;;;;;;-144.87;100.00;61487.56;4949480;29;20151;-70
2023/06/26 09:01:41;;;;;;;9.90;2.78;;;;;;;-144.87;100.00;61487.56;4948198;28;20054;-70
2023/06/26 09:04:07;;;;;;;6.35;2.40;;;;;;;-144.87;100.00;61487.56;4951995;28;20142;-70
2023/06/26 09:06:34;;;;;;;7.63;2.50;;;;;;;-144.87;100.00;61487.56;4937270;28;20119;-69
2023/06/26 09:09:00;;;;;;;9.38;2.35;;;;;;;-144.87;100.00;61487.56;4950316;28;20160;-70
2023/06/26 09:11:27;;;;;;;12.27;3.03;;;;;;;-144.87;100.00;61487.56;4951341;28;20086;-70
2023/06/26 09:13:55;;;;;;;8.70;2.60;;;;;;;-144.87;100.00;61487.56;4948983;28;20063;-70
2023/06/26 09:16:28;;;;;;;12.07;3.08;;;;;;;-144.87;100.00;61487.56;4951791;28;20118;-69
2023/06/26 09:18:56;;;;;;;9.77;2.53;;;;;;;-144.87;100.00;61487.56;4950534;28;20758;-68
2023/06/26 09:21:24;;;;;;;6.95;2.33;;;;;;;-144.87;100.00;61487.56;4948873;29;20512;-71
2023/06/26 09:23:51;;;;;;;7.97;2.53;;;;;;;-144.87;100.00;61487.56;4952244;28;20031;-71
2023/06/26 09:26:17;;;;;;;11.50;2.47;;;;;;;-144.87;100.00;61487.56;4951212;29;20511;-69
2023/06/26 09:28:43;;;;;;;9.40;2.88;;;;;;;-144.87;100.00;61487.56;4934447;29;20432;-69
2023/06/26 09:31:10;;;;;;;8.57;2.42;;;;;;;-144.87;100.00;61487.56;4950976;29;20063;-70
2023/06/26 09:33:37;;;;;;;7.10;2.28;;;;;;;-144.87;100.00;61487.56;4948835;28;20043;-70
2023/06/26 09:36:18;;;;;;;9.07;2.22;;;;;;;-144.87;100.00;61487.56;4950334;28;20110;-70
2023/06/26 09:38:45;;;;;;;6.65;2.45;;;;;;;-144.87;100.00;61487.56;4949011;29;20035;-70
2023/06/26 09:41:11;;;;;;;7.93;2.42;;;;;;;-144.87;100.00;61487.56;4946648;28;20166;-69
2023/06/26 09:43:46;;;;;;;7.72;2.00;;;;;;;-144.87;100.00;61487.56;4958962;28;20070;-69
2023/06/26 09:46:26;;;;;;;12.27;2.10;;;;;;;-144.87;100.00;61487.56;4947453;29;20081;-71
2023/06/26 09:49:06;;;;;;;8.60;2.58;;;;;;;-144.87;100.00;61487.56;4950734;28;20110;-70
2023/06/26 09:51:33;;;;;;;5.47;1.95;;;;;;;-144.87;100.00;61487.56;4953825;29;20039;-69
2023/06/26 09:54:00;;;;;;;5.32;1.95;;;;;;;-144.87;100.00;61487.56;4946837;28;20223;-71
2023/06/26 09:56:30;;;;;;;8.20;1.85;;;;;;;-144.87;100.00;61487.56;4945883;28;20208;-71
2023/06/26 09:58:59;;;;;;;18.17;2.38;;;;;;;-144.87;100.00;61487.56;4948294;29;20038;-69
2023/06/26 10:01:26;;;;;;;5.25;1.80;;;;;;;-144.87;100.00;61487.56;4941508;28;20417;-69
2023/06/26 10:03:53;;;;;;;10.15;2.08;;;;;;;-144.87;100.00;61487.56;4949323;29;20047;-69
2023/06/26 10:06:26;;;;;;;6.97;1.83;;;;;;;-144.87;100.00;61487.56;4952531;29;20408;-71
2023/06/26 10:08:52;;;;;;;9.88;2.00;;;;;;;-144.87;100.00;61487.56;4949637;29;20035;-70
2023/06/26 10:11:21;;;;;;;6.25;2.00;;;;;;;-144.87;100.00;61487.56;4950039;28;20043;-71
2023/06/26 10:13:51;;;;;;;6.30;2.00;;;;;;;-144.87;100.00;61487.56;4948746;28;20062;-72
2023/06/26 10:16:22;;;;;;;8.10;1.60;;;;;;;-144.87;100.00;61487.56;4947940;28;20441;-70
2023/06/26 10:18:50;;;;;;;17.90;1.98;;;;;;;-144.87;100.00;61487.56;4949618;28;20070;-71
2023/06/26 10:21:17;;;;;;;6.20;1.50;;;;;;;-144.87;100.00;61487.56;4952047;29;20035;-71
2023/06/26 10:23:45;;;;;;;7.40;2.08;;;;;;;-144.87;100.00;61487.56;4950293;28;20399;-71
2023/06/26 10:26:12;;;;;;;11.02;2.25;;;;;;;-144.87;100.00;61487.56;4951491;28;20106;-70
2023/06/26 10:28:39;;;;;;;7.07;2.17;;;;;;;-144.87;100.00;61487.56;4944015;28;20035;-70
2023/06/26 10:31:07;;;;;;;7.43;2.25;;;;;;;-144.87;100.00;61487.56;4949162;29;20040;-70
2023/06/26 10:33:34;;;;;;;4.50;1.80;;;;;;;-144.87;100.00;61487.56;4947512;28;20047;-70
2023/06/26 10:36:21;;;;;;;11.02;2.13;;;;;;;-144.87;100.00;61487.56;4950034;29;20188;-69
2023/06/26 10:38:56;;;;;;;5.78;2.03;;;;;;;-144.87;100.00;61487.56;4948862;28;20039;-70
2023/06/26 10:41:23;;;;;;;8.60;2.30;;;;;;;-144.87;100.00;61487.56;4940868;28;20043;-69
2023/06/26 10:44:11;;;;;;;7.03;2.22;;;;;;;-144.87;100.00;61487.56;4949322;29;20166;-70
2023/06/26 10:46:53;;;;;;;6.07;1.92;;;;;;;-144.87;100.00;61487.56;4945747;29;20055;-70
2023/06/26 10:49:24;;;;;;;7.32;1.90;;;;;;;-144.87;100.00;61487.56;4949231;28;20105;-70
2023/06/26 10:51:51;;;;;;;8.23;1.92;;;;;;;-144.87;100.00;61487.56;4950728;28;20054;-70
2023/06/26 10:54:19;;;;;;;10.45;2.10;;;;;;;-144.87;100.00;61487.56;4950128;28;20035;-70
2023/06/26 10:56:50;;;;;;;9.30;2.38;;;;;;;-144.87;100.00;61487.56;4950509;28;20031;-70
2023/06/26 10:59:18;;;;;;;9.25;2.10;;;;;;;-144.87;100.00;61487.56;4948080;29;20069;-75
2023/06/26 11:01:46;;;;;;;4.43;1.80;;;;;;;-144.87;100.00;61487.56;4946716;28;20036;-69
2023/06/26 11:04:17;;;;;;;5.57;1.70;;;;;;;-144.87;100.00;61487.56;4949516;28;20046;-69
2023/06/26 11:06:46;;;;;;;7.35;1.80;;;;;;;-144.87;100.00;61487.56;4942378;28;20031;-69
2023/06/26 11:09:15;;;;;;;6.35;1.70;;;;;;;-144.87;100.00;61487.56;4942237;29;20035;-69
2023/06/26 11:12:04;;;;;;;11.48;2.30;;;;;;;-144.87;100.00;61487.56;4954108;29;20098;-71